sensor_id;sensor_type;location;lat;lon;timestamp;pressure;altitude;pressure_sealevel;temperature;humidity
32320;BME280;19080;51.750;5.888;2023-02-28T00:01:32;102918.94;;;0.40;100.00
32320;BME280;19080;51.750;5.888;2023-02-28T00:03:58;102809.97;;;-0.20;100.00
32320;BME280;19080;51.750;5.888;2023-02-28T00:06:26;102927.56;;;0.39;100.00
32320;BME280;19080;51.750;5.888;2023-02-28T00:08:52;102903.72;;;0.26;100.00
32320;BME280;19080;51.750;5.888;2023-02-28T00:11:19;102820.41;;;-0.20;100.00
32320;BME280;19080;51.750;5.888;2023-02-28T00:13:46;102811.63;;;-0.31;100.00
32320;BME280;19080;51.750;5.888;2023-02-28T00:16:17;102828.88;;;-0.23;100.00
32320;BME280;19080;51.750;5.888;2023-02-28T00:18:44;102822.59;;;-0.25;100.00
32320;BME280;19080;51.750;5.888;2023-02-28T00:21:10;102877.38;;;0.04;100.00
32320;BME280;19080;51.750;5.888;2023-02-28T00:23:37;102808.94;;;-0.41;100.00
32320;BME280;19080;51.750;5.888;2023-02-28T00:26:04;102850.53;;;-0.24;100.00
32320;BME280;19080;51.750;5.888;2023-02-28T00:28:31;102892.91;;;-0.08;100.00
32320;BME280;19080;51.750;5.888;2023-02-28T00:30:58;102771.47;;;-0.71;100.00
32320;BME280;19080;51.750;5.888;2023-02-28T00:33:27;102890.00;;;-0.11;100.00
32320;BME280;19080;51.750;5.888;2023-02-28T00:36:08;102829.53;;;-0.44;100.00
32320;BME280;19080;51.750;5.888;2023-02-28T00:38:36;102898.91;;;-0.09;100.00
32320;BME280;19080;51.750;5.888;2023-02-28T00:41:03;102851.25;;;-0.35;100.00
32320;BME280;19080;51.750;5.888;2023-02-28T00:43:33;102894.94;;;-0.14;100.00
32320;BME280;19080;51.750;5.888;2023-02-28T00:46:00;102910.81;;;-0.02;100.00
32320;BME280;19080;51.750;5.888;2023-02-28T00:48:27;102891.00;;;-0.19;100.00
32320;BME280;19080;51.750;5.888;2023-02-28T00:50:54;102915.34;;;-0.10;100.00
32320;BME280;19080;51.750;5.888;2023-02-28T00:53:21;102912.59;;;-0.11;100.00
32320;BME280;19080;51.750;5.888;2023-02-28T00:55:49;102801.94;;;-0.80;100.00
32320;BME280;19080;51.750;5.888;2023-02-28T00:58:16;102811.09;;;-0.75;100.00
32320;BME280;19080;51.750;5.888;2023-02-28T01:00:43;102817.84;;;-0.77;100.00
32320;BME280;19080;51.750;5.888;2023-02-28T01:03:10;102877.28;;;-0.45;100.00
32320;BME280;19080;51.750;5.888;2023-02-28T01:05:37;102801.84;;;-0.90;100.00
32320;BME280;19080;51.750;5.888;2023-02-28T01:08:04;102904.97;;;-0.37;100.00
32320;BME280;19080;51.750;5.888;2023-02-28T01:10:30;102887.91;;;-0.52;100.00
32320;BME280;19080;51.750;5.888;2023-02-28T01:12:58;102892.44;;;-0.41;100.00
32320;BME280;19080;51.750;5.888;2023-02-28T01:15:24;102814.63;;;-0.74;100.00
32320;BME280;19080;51.750;5.888;2023-02-28T01:17:51;102924.38;;;-0.06;100.00
32320;BME280;19080;51.750;5.888;2023-02-28T01:20:18;102877.81;;;-0.20;100.00
32320;BME280;19080;51.750;5.888;2023-02-28T01:22:44;102907.31;;;0.08;100.00
32320;BME280;19080;51.750;5.888;2023-02-28T01:25:11;102792.47;;;-0.50;100.00
32320;BME280;19080;51.750;5.888;2023-02-28T01:27:38;102817.25;;;-0.26;100.00
32320;BME280;19080;51.750;5.888;2023-02-28T01:30:09;102933.84;;;0.41;100.00
32320;BME280;19080;51.750;5.888;2023-02-28T01:32:36;102909.13;;;0.38;100.00
32320;BME280;19080;51.750;5.888;2023-02-28T01:35:03;102836.94;;;0.09;100.00
32320;BME280;19080;51.750;5.888;2023-02-28T01:37:30;102884.06;;;0.40;100.00
32320;BME280;19080;51.750;5.888;2023-02-28T01:39:57;102872.69;;;0.39;100.00
32320;BME280;19080;51.750;5.888;2023-02-28T01:42:24;102886.84;;;0.51;100.00
32320;BME280;19080;51.750;5.888;2023-02-28T01:47:36;102881.38;;;0.58;100.00
32320;BME280;19080;51.750;5.888;2023-02-28T01:50:09;102880.75;;;0.71;100.00
32320;BME280;19080;51.750;5.888;2023-02-28T01:52:37;102792.75;;;0.31;100.00
32320;BME280;19080;51.750;5.888;2023-02-28T01:55:06;102912.84;;;1.09;100.00
32320;BME280;19080;51.750;5.888;2023-02-28T01:57:39;102902.25;;;1.08;100.00
32320;BME280;19080;51.750;5.888;2023-02-28T02:00:10;102881.97;;;1.15;100.00
32320;BME280;19080;51.750;5.888;2023-02-28T02:02:42;102869.41;;;1.11;100.00
32320;BME280;19080;51.750;5.888;2023-02-28T02:05:17;102822.34;;;0.91;100.00
32320;BME280;19080;51.750;5.888;2023-02-28T02:07:48;102871.66;;;1.27;100.00
32320;BME280;19080;51.750;5.888;2023-02-28T02:10:21;102816.34;;;1.02;100.00
32320;BME280;19080;51.750;5.888;2023-02-28T02:18:20;102900.78;;;1.72;100.00
32320;BME280;19080;51.750;5.888;2023-02-28T02:24:19;102908.56;;;1.82;100.00
32320;BME280;19080;51.750;5.888;2023-02-28T02:35:35;102907.22;;;1.98;100.00
32320;BME280;19080;51.750;5.888;2023-02-28T02:40:41;102811.06;;;1.43;100.00
32320;BME280;19080;51.750;5.888;2023-02-28T02:43:15;102812.22;;;1.46;100.00
32320;BME280;19080;51.750;5.888;2023-02-28T02:48:13;102899.91;;;1.93;100.00
32320;BME280;19080;51.750;5.888;2023-02-28T02:50:48;102807.41;;;1.41;100.00
32320;BME280;19080;51.750;5.888;2023-02-28T02:53:18;102794.59;;;1.34;100.00
32320;BME280;19080;51.750;5.888;2023-02-28T02:55:48;102814.69;;;1.55;100.00
32320;BME280;19080;51.750;5.888;2023-02-28T02:58:25;102875.31;;;1.81;100.00
32320;BME280;19080;51.750;5.888;2023-02-28T03:00:55;102879.22;;;1.86;100.00
32320;BME280;19080;51.750;5.888;2023-02-28T03:03:24;102865.69;;;1.70;100.00
32320;BME280;19080;51.750;5.888;2023-02-28T03:05:59;102917.56;;;1.96;100.00
32320;BME280;19080;51.750;5.888;2023-02-28T03:08:28;102891.78;;;1.90;100.00
32320;BME280;19080;51.750;5.888;2023-02-28T03:11:00;102875.56;;;1.84;100.00
32320;BME280;19080;51.750;5.888;2023-02-28T03:13:47;102922.41;;;2.02;100.00
32320;BME280;19080;51.750;5.888;2023-02-28T03:21:38;102880.16;;;1.87;100.00
32320;BME280;19080;51.750;5.888;2023-02-28T03:24:24;102852.03;;;1.74;100.00
32320;BME280;19080;51.750;5.888;2023-02-28T03:27:01;102795.63;;;1.46;100.00
32320;BME280;19080;51.750;5.888;2023-02-28T03:29:38;102873.34;;;1.89;100.00
32320;BME280;19080;51.750;5.888;2023-02-28T03:32:13;102879.06;;;1.95;100.00
32320;BME280;19080;51.750;5.888;2023-02-28T03:34:58;102884.97;;;1.92;100.00
32320;BME280;19080;51.750;5.888;2023-02-28T03:37:28;102892.81;;;2.03;100.00
32320;BME280;19080;51.750;5.888;2023-02-28T03:39:59;102849.94;;;1.80;100.00
32320;BME280;19080;51.750;5.888;2023-02-28T03:42:29;102846.81;;;1.74;100.00
32320;BME280;19080;51.750;5.888;2023-02-28T03:45:01;102785.16;;;1.46;100.00
32320;BME280;19080;51.750;5.888;2023-02-28T03:47:54;102801.34;;;1.52;100.00
32320;BME280;19080;51.750;5.888;2023-02-28T03:50:27;102811.50;;;1.69;100.00
32320;BME280;19080;51.750;5.888;2023-02-28T03:53:19;102885.31;;;2.07;100.00
32320;BME280;19080;51.750;5.888;2023-02-28T03:55:57;102852.75;;;1.93;100.00
32320;BME280;19080;51.750;5.888;2023-02-28T03:58:47;102902.97;;;2.20;100.00
32320;BME280;19080;51.750;5.888;2023-02-28T04:01:38;102884.16;;;2.04;100.00
32320;BME280;19080;51.750;5.888;2023-02-28T04:04:08;102866.50;;;2.01;100.00
32320;BME280;19080;51.750;5.888;2023-02-28T04:06:37;102897.72;;;2.20;100.00
32320;BME280;19080;51.750;5.888;2023-02-28T04:09:05;102873.16;;;2.08;100.00
32320;BME280;19080;51.750;5.888;2023-02-28T04:11:59;102894.06;;;2.18;100.00
32320;BME280;19080;51.750;5.888;2023-02-28T04:14:22;102879.16;;;2.07;100.00
32320;BME280;19080;51.750;5.888;2023-02-28T04:16:49;102841.00;;;1.88;100.00
32320;BME280;19080;51.750;5.888;2023-02-28T04:19:17;102830.81;;;1.81;100.00
32320;BME280;19080;51.750;5.888;2023-02-28T04:21:55;102841.00;;;1.88;100.00
32320;BME280;19080;51.750;5.888;2023-02-28T04:24:24;102877.34;;;2.06;100.00
32320;BME280;19080;51.750;5.888;2023-02-28T04:26:53;102874.34;;;2.01;100.00
32320;BME280;19080;51.750;5.888;2023-02-28T04:29:26;102784.72;;;1.51;100.00
32320;BME280;19080;51.750;5.888;2023-02-28T04:31:54;102785.66;;;1.52;100.00
32320;BME280;19080;51.750;5.888;2023-02-28T04:34:22;102799.91;;;1.55;100.00
32320;BME280;19080;51.750;5.888;2023-02-28T04:36:50;102876.84;;;2.00;100.00
32320;BME280;19080;51.750;5.888;2023-02-28T04:39:37;102860.38;;;1.90;100.00
32320;BME280;19080;51.750;5.888;2023-02-28T04:42:03;102847.81;;;1.86;100.00
32320;BME280;19080;51.750;5.888;2023-02-28T04:44:30;102770.75;;;1.41;100.00
32320;BME280;19080;51.750;5.888;2023-02-28T04:46:57;102876.06;;;2.01;100.00
32320;BME280;19080;51.750;5.888;2023-02-28T04:49:25;102864.94;;;1.93;100.00
32320;BME280;19080;51.750;5.888;2023-02-28T04:51:51;102792.59;;;1.51;100.00
32320;BME280;19080;51.750;5.888;2023-02-28T04:54:19;102785.91;;;1.55;100.00
32320;BME280;19080;51.750;5.888;2023-02-28T04:56:45;102870.03;;;2.02;100.00
32320;BME280;19080;51.750;5.888;2023-02-28T04:59:12;102782.50;;;1.56;100.00
32320;BME280;19080;51.750;5.888;2023-02-28T05:01:39;102791.63;;;1.61;100.00
32320;BME280;19080;51.750;5.888;2023-02-28T05:04:05;102905.81;;;2.23;100.00
32320;BME280;19080;51.750;5.888;2023-02-28T05:06:33;102822.22;;;1.72;100.00
32320;BME280;19080;51.750;5.888;2023-02-28T05:08:59;102822.69;;;1.78;100.00
32320;BME280;19080;51.750;5.888;2023-02-28T05:11:32;102885.56;;;2.10;100.00
32320;BME280;19080;51.750;5.888;2023-02-28T05:14:03;102916.44;;;2.24;100.00
32320;BME280;19080;51.750;5.888;2023-02-28T05:16:31;102840.09;;;1.88;100.00
32320;BME280;19080;51.750;5.888;2023-02-28T05:18:58;102824.84;;;1.72;100.00
32320;BME280;19080;51.750;5.888;2023-02-28T05:21:34;102826.91;;;1.76;100.00
32320;BME280;19080;51.750;5.888;2023-02-28T05:24:06;102902.47;;;2.14;100.00
32320;BME280;19080;51.750;5.888;2023-02-28T05:26:36;102832.44;;;1.69;100.00
32320;BME280;19080;51.750;5.888;2023-02-28T05:29:04;102847.31;;;1.80;100.00
32320;BME280;19080;51.750;5.888;2023-02-28T05:31:31;102816.78;;;1.59;100.00
32320;BME280;19080;51.750;5.888;2023-02-28T05:33:59;102917.13;;;2.12;100.00
32320;BME280;19080;51.750;5.888;2023-02-28T05:36:26;102836.53;;;1.66;100.00
32320;BME280;19080;51.750;5.888;2023-02-28T05:38:52;102823.06;;;1.51;100.00
32320;BME280;19080;51.750;5.888;2023-02-28T05:41:19;102892.56;;;1.89;100.00
32320;BME280;19080;51.750;5.888;2023-02-28T05:43:47;102916.00;;;1.98;100.00
32320;BME280;19080;51.750;5.888;2023-02-28T05:46:14;102827.41;;;1.50;100.00
32320;BME280;19080;51.750;5.888;2023-02-28T05:48:42;102829.75;;;1.47;100.00
32320;BME280;19080;51.750;5.888;2023-02-28T05:51:08;102896.94;;;1.79;100.00
32320;BME280;19080;51.750;5.888;2023-02-28T05:53:35;102915.38;;;1.80;100.00
32320;BME280;19080;51.750;5.888;2023-02-28T05:56:03;102837.88;;;1.40;100.00
32320;BME280;19080;51.750;5.888;2023-02-28T05:58:29;102941.81;;;1.93;100.00
32320;BME280;19080;51.750;5.888;2023-02-28T06:00:58;102855.78;;;1.46;100.00
32320;BME280;19080;51.750;5.888;2023-02-28T06:03:25;102924.94;;;1.80;100.00
32320;BME280;19080;51.750;5.888;2023-02-28T06:05:51;102949.00;;;1.96;100.00
32320;BME280;19080;51.750;5.888;2023-02-28T06:08:18;102913.06;;;1.73;100.00
32320;BME280;19080;51.750;5.888;2023-02-28T06:10:45;102815.53;;;1.23;100.00
32320;BME280;19080;51.750;5.888;2023-02-28T06:13:12;102928.59;;;1.82;100.00
32320;BME280;19080;51.750;5.888;2023-02-28T06:15:39;102910.44;;;1.73;100.00
32320;BME280;19080;51.750;5.888;2023-02-28T06:18:06;102865.34;;;1.45;100.00
32320;BME280;19080;51.750;5.888;2023-02-28T06:20:33;102964.19;;;2.00;100.00
32320;BME280;19080;51.750;5.888;2023-02-28T06:23:00;102943.91;;;1.87;100.00
32320;BME280;19080;51.750;5.888;2023-02-28T06:25:27;102932.66;;;1.88;100.00
32320;BME280;19080;51.750;5.888;2023-02-28T06:27:54;102925.44;;;1.86;100.00
32320;BME280;19080;51.750;5.888;2023-02-28T06:30:21;102922.84;;;1.86;100.00
32320;BME280;19080;51.750;5.888;2023-02-28T06:32:54;102919.69;;;1.80;100.00
32320;BME280;19080;51.750;5.888;2023-02-28T06:35:21;102941.19;;;1.76;100.00
32320;BME280;19080;51.750;5.888;2023-02-28T06:37:48;102947.91;;;1.72;100.00
32320;BME280;19080;51.750;5.888;2023-02-28T06:40:15;102879.09;;;1.33;100.00
32320;BME280;19080;51.750;5.888;2023-02-28T06:42:42;102885.38;;;1.35;100.00
32320;BME280;19080;51.750;5.888;2023-02-28T06:45:10;102964.59;;;1.84;100.00
32320;BME280;19080;51.750;5.888;2023-02-28T06:47:39;102933.19;;;1.74;100.00
32320;BME280;19080;51.750;5.888;2023-02-28T06:50:08;102979.50;;;2.06;100.00
32320;BME280;19080;51.750;5.888;2023-02-28T06:52:35;102840.25;;;1.37;100.00
32320;BME280;19080;51.750;5.888;2023-02-28T06:55:05;102935.78;;;1.94;100.00
32320;BME280;19080;51.750;5.888;2023-02-28T06:57:34;102977.38;;;2.22;100.00
32320;BME280;19080;51.750;5.888;2023-02-28T07:00:04;102978.41;;;2.24;100.00
32320;BME280;19080;51.750;5.888;2023-02-28T07:02:32;102857.88;;;1.60;100.00
32320;BME280;19080;51.750;5.888;2023-02-28T07:04:59;102909.63;;;1.84;100.00
32320;BME280;19080;51.750;5.888;2023-02-28T07:07:25;102951.19;;;2.12;100.00
32320;BME280;19080;51.750;5.888;2023-02-28T07:09:52;102970.53;;;2.24;100.00
32320;BME280;19080;51.750;5.888;2023-02-28T07:12:18;102961.66;;;2.12;100.00
32320;BME280;19080;51.750;5.888;2023-02-28T07:14:45;102948.47;;;2.00;100.00
32320;BME280;19080;51.750;5.888;2023-02-28T07:17:12;102950.03;;;2.08;100.00
32320;BME280;19080;51.750;5.888;2023-02-28T07:19:39;102910.63;;;1.96;100.00
32320;BME280;19080;51.750;5.888;2023-02-28T07:22:07;102890.91;;;2.22;100.00
32320;BME280;19080;51.750;5.888;2023-02-28T07:24:33;102904.19;;;2.67;100.00
32320;BME280;19080;51.750;5.888;2023-02-28T07:27:00;102978.13;;;3.62;100.00
32320;BME280;19080;51.750;5.888;2023-02-28T07:29:28;102828.22;;;3.24;100.00
32320;BME280;19080;51.750;5.888;2023-02-28T07:31:55;102975.03;;;4.36;100.00
32320;BME280;19080;51.750;5.888;2023-02-28T07:34:22;102984.81;;;4.74;100.00
32320;BME280;19080;51.750;5.888;2023-02-28T07:36:52;102908.53;;;4.74;100.00
32320;BME280;19080;51.750;5.888;2023-02-28T07:39:20;102992.63;;;5.34;98.73
32320;BME280;19080;51.750;5.888;2023-02-28T07:41:47;102982.53;;;5.65;89.48
32320;BME280;19080;51.750;5.888;2023-02-28T07:44:14;102998.91;;;5.85;86.37
32320;BME280;19080;51.750;5.888;2023-02-28T07:46:41;102915.75;;;5.64;85.68
32320;BME280;19080;51.750;5.888;2023-02-28T07:49:07;102986.41;;;6.21;72.02
32320;BME280;19080;51.750;5.888;2023-02-28T07:51:34;102977.09;;;6.26;68.59
32320;BME280;19080;51.750;5.888;2023-02-28T07:54:00;102986.13;;;6.69;68.02
32320;BME280;19080;51.750;5.888;2023-02-28T07:56:27;102994.31;;;6.87;65.24
32320;BME280;19080;51.750;5.888;2023-02-28T07:58:54;102990.41;;;6.95;62.92
32320;BME280;19080;51.750;5.888;2023-02-28T08:01:21;102978.91;;;7.08;61.69
32320;BME280;19080;51.750;5.888;2023-02-28T08:03:48;102998.03;;;7.32;59.30
32320;BME280;19080;51.750;5.888;2023-02-28T08:06:18;102995.75;;;7.66;56.44
32320;BME280;19080;51.750;5.888;2023-02-28T08:08:45;102983.88;;;7.59;55.41
32320;BME280;19080;51.750;5.888;2023-02-28T08:11:12;102993.28;;;7.69;54.91
32320;BME280;19080;51.750;5.888;2023-02-28T08:13:39;102993.22;;;8.11;53.18
32320;BME280;19080;51.750;5.888;2023-02-28T08:16:06;102986.84;;;8.08;53.88
32320;BME280;19080;51.750;5.888;2023-02-28T08:18:33;102995.78;;;8.25;52.94
32320;BME280;19080;51.750;5.888;2023-02-28T08:21:06;102984.09;;;8.21;52.07
32320;BME280;19080;51.750;5.888;2023-02-28T08:23:32;102983.75;;;8.44;51.64
32320;BME280;19080;51.750;5.888;2023-02-28T08:25:59;103001.16;;;8.87;50.35
32320;BME280;19080;51.750;5.888;2023-02-28T08:28:26;102971.72;;;9.13;49.48
32320;BME280;19080;51.750;5.888;2023-02-28T08:30:53;102989.38;;;9.12;48.65
32320;BME280;19080;51.750;5.888;2023-02-28T08:33:22;102995.69;;;9.31;47.64
32320;BME280;19080;51.750;5.888;2023-02-28T08:35:52;102977.78;;;9.59;44.88
32320;BME280;19080;51.750;5.888;2023-02-28T08:38:20;102992.53;;;9.70;45.03
32320;BME280;19080;51.750;5.888;2023-02-28T08:40:47;102974.16;;;9.25;43.29
32320;BME280;19080;51.750;5.888;2023-02-28T08:43:14;102979.44;;;9.41;40.94
32320;BME280;19080;51.750;5.888;2023-02-28T08:45:40;102880.47;;;8.75;40.88
32320;BME280;19080;51.750;5.888;2023-02-28T08:48:07;102972.88;;;9.83;40.19
32320;BME280;19080;51.750;5.888;2023-02-28T08:50:33;102980.91;;;10.19;39.77
32320;BME280;19080;51.750;5.888;2023-02-28T08:53:00;102945.34;;;10.15;38.45
32320;BME280;19080;51.750;5.888;2023-02-28T08:55:26;102975.25;;;10.47;36.78
32320;BME280;19080;51.750;5.888;2023-02-28T08:57:53;102973.38;;;10.26;37.84
32320;BME280;19080;51.750;5.888;2023-02-28T09:00:21;102981.25;;;10.25;38.89
32320;BME280;19080;51.750;5.888;2023-02-28T09:02:48;102989.34;;;10.46;37.96
32320;BME280;19080;51.750;5.888;2023-02-28T09:05:15;102979.13;;;10.35;36.87
32320;BME280;19080;51.750;5.888;2023-02-28T09:07:41;102978.47;;;10.39;36.72
32320;BME280;19080;51.750;5.888;2023-02-28T09:10:09;102972.19;;;10.57;37.20
32320;BME280;19080;51.750;5.888;2023-02-28T09:12:36;102967.63;;;10.90;36.23
32320;BME280;19080;51.750;5.888;2023-02-28T09:15:03;102971.38;;;11.13;35.04
32320;BME280;19080;51.750;5.888;2023-02-28T09:17:29;102962.69;;;11.17;33.44
32320;BME280;19080;51.750;5.888;2023-02-28T09:19:57;102963.53;;;11.16;33.08
32320;BME280;19080;51.750;5.888;2023-02-28T09:22:24;102975.44;;;11.43;33.50
32320;BME280;19080;51.750;5.888;2023-02-28T09:24:50;102964.81;;;11.24;32.58
32320;BME280;19080;51.750;5.888;2023-02-28T09:27:17;102969.69;;;11.53;32.87
32320;BME280;19080;51.750;5.888;2023-02-28T09:29:43;102944.72;;;11.50;33.87
32320;BME280;19080;51.750;5.888;2023-02-28T09:32:10;102924.13;;;12.05;33.11
32320;BME280;19080;51.750;5.888;2023-02-28T09:34:37;102964.53;;;13.03;31.06
32320;BME280;19080;51.750;5.888;2023-02-28T09:37:04;102965.63;;;13.09;29.57
32320;BME280;19080;51.750;5.888;2023-02-28T09:39:31;102969.38;;;12.69;29.86
32320;BME280;19080;51.750;5.888;2023-02-28T09:41:58;102954.94;;;12.42;29.99
32320;BME280;19080;51.750;5.888;2023-02-28T09:44:37;102965.56;;;12.42;29.47
32320;BME280;19080;51.750;5.888;2023-02-28T09:49:50;102970.09;;;12.01;30.40
32320;BME280;19080;51.750;5.888;2023-02-28T09:52:19;102945.56;;;12.08;30.52
32320;BME280;19080;51.750;5.888;2023-02-28T09:54:47;102975.38;;;12.63;30.20
32320;BME280;19080;51.750;5.888;2023-02-28T09:57:50;102958.41;;;12.61;29.33
32320;BME280;19080;51.750;5.888;2023-02-28T10:00:24;102967.44;;;12.65;29.53
32320;BME280;19080;51.750;5.888;2023-02-28T10:03:24;102972.03;;;13.14;28.99
32320;BME280;19080;51.750;5.888;2023-02-28T10:05:56;102956.53;;;12.81;29.54
32320;BME280;19080;51.750;5.888;2023-02-28T10:08:30;102874.06;;;12.62;29.69
32320;BME280;19080;51.750;5.888;2023-02-28T10:11:06;102860.03;;;12.90;29.10
32320;BME280;19080;51.750;5.888;2023-02-28T10:13:56;102956.41;;;13.00;29.00
32320;BME280;19080;51.750;5.888;2023-02-28T10:17:02;102954.13;;;12.87;28.56
32320;BME280;19080;51.750;5.888;2023-02-28T10:19:34;102930.97;;;13.09;28.27
32320;BME280;19080;51.750;5.888;2023-02-28T10:22:13;102943.69;;;13.38;28.17
32320;BME280;19080;51.750;5.888;2023-02-28T10:24:44;102846.03;;;12.95;27.85
32320;BME280;19080;51.750;5.888;2023-02-28T10:27:18;102941.00;;;13.38;28.42
32320;BME280;19080;51.750;5.888;2023-02-28T10:29:49;102906.13;;;13.10;28.31
32320;BME280;19080;51.750;5.888;2023-02-28T10:32:21;102929.16;;;13.30;28.01
32320;BME280;19080;51.750;5.888;2023-02-28T10:34:57;102920.88;;;13.72;27.76
32320;BME280;19080;51.750;5.888;2023-02-28T10:37:23;102930.47;;;14.17;27.84
32320;BME280;19080;51.750;5.888;2023-02-28T10:39:50;102936.41;;;14.61;27.31
32320;BME280;19080;51.750;5.888;2023-02-28T10:42:25;102919.25;;;14.54;27.24
32320;BME280;19080;51.750;5.888;2023-02-28T10:47:33;102934.50;;;14.85;26.69
32320;BME280;19080;51.750;5.888;2023-02-28T10:50:01;102927.66;;;14.95;26.86
32320;BME280;19080;51.750;5.888;2023-02-28T10:52:39;102919.50;;;14.90;26.30
32320;BME280;19080;51.750;5.888;2023-02-28T10:55:24;102914.66;;;15.37;26.28
32320;BME280;19080;51.750;5.888;2023-02-28T10:57:54;102914.38;;;15.58;26.16
32320;BME280;19080;51.750;5.888;2023-02-28T11:00:23;102861.34;;;15.13;26.57
32320;BME280;19080;51.750;5.888;2023-02-28T11:02:51;102925.53;;;16.09;25.84
32320;BME280;19080;51.750;5.888;2023-02-28T11:05:32;102828.75;;;15.28;25.23
32320;BME280;19080;51.750;5.888;2023-02-28T11:08:14;102846.53;;;15.26;25.53
32320;BME280;19080;51.750;5.888;2023-02-28T11:10:53;102909.97;;;15.61;25.41
32320;BME280;19080;51.750;5.888;2023-02-28T11:13:24;102927.34;;;15.14;25.66
32320;BME280;19080;51.750;5.888;2023-02-28T11:15:57;102914.72;;;15.40;25.76
32320;BME280;19080;51.750;5.888;2023-02-28T11:20:57;102812.97;;;15.37;25.38
32320;BME280;19080;51.750;5.888;2023-02-28T11:23:27;102896.22;;;15.48;25.03
32320;BME280;19080;51.750;5.888;2023-02-28T11:25:57;102900.84;;;15.53;25.54
32320;BME280;19080;51.750;5.888;2023-02-28T11:28:36;102830.50;;;15.57;25.68
32320;BME280;19080;51.750;5.888;2023-02-28T11:33:53;102818.38;;;16.47;24.91
32320;BME280;19080;51.750;5.888;2023-02-28T11:36:38;102885.28;;;16.80;24.69
32320;BME280;19080;51.750;5.888;2023-02-28T11:39:12;102801.84;;;15.91;24.84
32320;BME280;19080;51.750;5.888;2023-02-28T11:44:33;102902.53;;;16.17;26.03
32320;BME280;19080;51.750;5.888;2023-02-28T11:50:25;102898.59;;;17.16;24.15
32320;BME280;19080;51.750;5.888;2023-02-28T11:52:56;102839.00;;;16.90;24.19
32320;BME280;19080;51.750;5.888;2023-02-28T11:55:42;102894.94;;;17.12;24.37
32320;BME280;19080;51.750;5.888;2023-02-28T12:01:24;102889.81;;;16.82;24.23
32320;BME280;19080;51.750;5.888;2023-02-28T12:09:28;102882.31;;;17.53;23.77
32320;BME280;19080;51.750;5.888;2023-02-28T12:12:10;102794.81;;;16.71;23.74
32320;BME280;19080;51.750;5.888;2023-02-28T12:20:38;102868.00;;;18.01;23.23
32320;BME280;19080;51.750;5.888;2023-02-28T12:23:52;102838.97;;;17.34;23.63
32320;BME280;19080;51.750;5.888;2023-02-28T12:26:41;102855.63;;;16.72;24.12
32320;BME280;19080;51.750;5.888;2023-02-28T12:29:34;102865.97;;;17.41;23.89
32320;BME280;19080;51.750;5.888;2023-02-28T12:32:13;102846.63;;;17.61;23.64
32320;BME280;19080;51.750;5.888;2023-02-28T12:40:44;102837.97;;;17.27;23.67
32320;BME280;19080;51.750;5.888;2023-02-28T12:43:13;102839.59;;;16.75;24.49
32320;BME280;19080;51.750;5.888;2023-02-28T12:45:57;102836.97;;;17.69;23.60
32320;BME280;19080;51.750;5.888;2023-02-28T12:48:31;102837.19;;;17.81;23.54
32320;BME280;19080;51.750;5.888;2023-02-28T12:51:02;102758.06;;;17.64;23.53
32320;BME280;19080;51.750;5.888;2023-02-28T12:56:22;102833.59;;;17.32;23.84
32320;BME280;19080;51.750;5.888;2023-02-28T12:58:59;102809.13;;;17.15;24.03
32320;BME280;19080;51.750;5.888;2023-02-28T13:07:13;102821.56;;;18.11;23.38
32320;BME280;19080;51.750;5.888;2023-02-28T13:09:56;102815.97;;;18.57;22.68
32320;BME280;19080;51.750;5.888;2023-02-28T13:12:24;102804.94;;;19.05;22.29
32320;BME280;19080;51.750;5.888;2023-02-28T13:14:51;102803.63;;;18.69;22.27
32320;BME280;19080;51.750;5.888;2023-02-28T13:17:27;102807.56;;;18.34;22.61
32320;BME280;19080;51.750;5.888;2023-02-28T13:22:42;102799.38;;;18.90;22.68
32320;BME280;19080;51.750;5.888;2023-02-28T13:28:01;102804.97;;;18.40;23.09
32320;BME280;19080;51.750;5.888;2023-02-28T13:38:54;102794.53;;;18.61;23.03
32320;BME280;19080;51.750;5.888;2023-02-28T13:44:36;102788.84;;;18.41;22.64
32320;BME280;19080;51.750;5.888;2023-02-28T13:51:53;102700.88;;;17.68;22.79
32320;BME280;19080;51.750;5.888;2023-02-28T14:00:05;102791.16;;;18.15;23.16
32320;BME280;19080;51.750;5.888;2023-02-28T14:02:51;102791.09;;;18.11;23.34
32320;BME280;19080;51.750;5.888;2023-02-28T14:05:24;102800.25;;;17.68;23.30
32320;BME280;19080;51.750;5.888;2023-02-28T14:07:56;102700.91;;;17.71;23.23
32320;BME280;19080;51.750;5.888;2023-02-28T14:10:28;102754.69;;;18.33;22.90
32320;BME280;19080;51.750;5.888;2023-02-28T14:13:13;102775.13;;;18.21;23.34
32320;BME280;19080;51.750;5.888;2023-02-28T14:18:20;102770.22;;;18.55;22.96
32320;BME280;19080;51.750;5.888;2023-02-28T14:20:58;102699.06;;;18.29;22.42
32320;BME280;19080;51.750;5.888;2023-02-28T14:23:46;102762.50;;;18.79;22.68
32320;BME280;19080;51.750;5.888;2023-02-28T14:31:45;102769.16;;;18.44;23.15
32320;BME280;19080;51.750;5.888;2023-02-28T14:34:50;102772.78;;;18.46;23.11
32320;BME280;19080;51.750;5.888;2023-02-28T14:37:44;102774.16;;;18.16;23.14
32320;BME280;19080;51.750;5.888;2023-02-28T14:40:27;102772.66;;;18.37;22.85
32320;BME280;19080;51.750;5.888;2023-02-28T14:43:02;102752.72;;;17.65;23.45
32320;BME280;19080;51.750;5.888;2023-02-28T14:45:30;102761.53;;;17.07;23.82
32320;BME280;19080;51.750;5.888;2023-02-28T14:47:58;102683.31;;;16.84;23.94
32320;BME280;19080;51.750;5.888;2023-02-28T14:50:36;102763.81;;;17.35;24.10
32320;BME280;19080;51.750;5.888;2023-02-28T14:53:09;102760.56;;;17.02;24.44
32320;BME280;19080;51.750;5.888;2023-02-28T14:55:44;102760.88;;;16.73;24.52
32320;BME280;19080;51.750;5.888;2023-02-28T14:58:29;102748.28;;;16.30;25.32
32320;BME280;19080;51.750;5.888;2023-02-28T15:00:59;102743.94;;;16.35;25.04
32320;BME280;19080;51.750;5.888;2023-02-28T15:03:36;102765.75;;;16.52;25.04